createdAt,value
2017-01-08T00:00:13.406Z,962.83
2017-01-08T00:01:12.431Z,962.78
2017-01-08T00:02:13.021Z,962.77
2017-01-08T00:03:13.642Z,962.69
2017-01-08T00:04:13.541Z,962.70
2017-01-08T00:05:13.560Z,962.70
2017-01-08T00:06:13.766Z,962.66
2017-01-08T00:07:12.591Z,962.68
2017-01-08T00:08:13.159Z,962.65
2017-01-08T00:09:12.895Z,962.66
2017-01-08T00:10:12.664Z,962.68
2017-01-08T00:11:13.391Z,962.62
2017-01-08T00:12:14.201Z,962.63
2017-01-08T00:13:13.449Z,962.63
2017-01-08T00:14:12.460Z,962.59
2017-01-08T00:15:12.622Z,962.62
2017-01-08T00:16:13.212Z,962.62
2017-01-08T00:17:13.974Z,962.65
2017-01-08T00:18:11.938Z,962.63
2017-01-08T00:19:12.528Z,962.64
2017-01-08T00:20:13.078Z,962.63
2017-01-08T00:21:14.045Z,962.62
2017-01-08T00:22:12.842Z,962.60
2017-01-08T00:23:14.467Z,962.63
2017-01-08T00:24:12.176Z,962.63
2017-01-08T00:25:12.936Z,962.60
2017-01-08T00:26:13.623Z,962.60
2017-01-08T00:27:13.572Z,962.63
2017-01-08T00:28:13.067Z,962.60
2017-01-08T00:29:12.595Z,962.59
2017-01-08T00:30:14.207Z,962.58
2017-01-08T00:31:13.000Z,962.53
2017-01-08T00:32:12.185Z,962.51
2017-01-08T00:33:13.862Z,962.50
2017-01-08T00:34:13.828Z,962.50
2017-01-08T00:35:13.517Z,962.47
2017-01-08T00:36:12.735Z,962.45
2017-01-08T00:37:12.611Z,962.45
2017-01-08T00:38:13.654Z,962.47
2017-01-08T00:39:10.974Z,962.43
2017-01-08T00:40:11.901Z,962.38
2017-01-08T00:41:12.459Z,962.41
2017-01-08T00:42:13.158Z,962.38
2017-01-08T00:43:12.844Z,962.37
2017-01-08T00:44:17.253Z,962.33
2017-01-08T00:45:13.580Z,962.35
2017-01-08T00:46:13.101Z,962.36
2017-01-08T00:47:12.191Z,962.35
2017-01-08T00:48:12.800Z,962.35
2017-01-08T00:49:14.234Z,962.38
2017-01-08T00:50:11.133Z,962.38
2017-01-08T00:51:12.811Z,962.36
2017-01-08T00:52:11.922Z,962.35
2017-01-08T00:53:12.731Z,962.38
2017-01-08T00:54:12.724Z,962.35
2017-01-08T00:55:13.452Z,962.34
2017-01-08T00:56:15.411Z,962.35
2017-01-08T00:57:11.557Z,962.33
2017-01-08T00:58:13.232Z,962.35
2017-01-08T00:59:12.298Z,962.31
2017-01-08T01:00:14.032Z,962.28
2017-01-08T01:01:13.412Z,962.36
2017-01-08T01:02:14.846Z,962.32
2017-01-08T01:03:14.360Z,962.34
2017-01-08T01:04:13.829Z,962.29
2017-01-08T01:05:16.019Z,962.28
2017-01-08T01:06:11.199Z,962.32
2017-01-08T01:07:13.387Z,962.31
2017-01-08T01:08:15.547Z,962.30
2017-01-08T01:09:12.450Z,962.31
2017-01-08T01:10:12.781Z,962.32
2017-01-08T01:11:12.985Z,962.38
2017-01-08T01:12:14.666Z,962.41
2017-01-08T01:13:14.185Z,962.38
2017-01-08T01:14:11.516Z,962.42
2017-01-08T01:15:12.784Z,962.48
2017-01-08T01:16:10.455Z,962.49
2017-01-08T01:17:12.669Z,962.50
2017-01-08T01:18:13.613Z,962.47
2017-01-08T01:19:12.686Z,962.47
2017-01-08T01:20:14.398Z,962.45
2017-01-08T01:21:15.360Z,962.43
2017-01-08T01:22:13.693Z,962.52
2017-01-08T01:23:10.823Z,962.42
2017-01-08T01:24:13.626Z,962.50
2017-01-08T01:25:11.844Z,962.50
2017-01-08T01:26:13.205Z,962.52
2017-01-08T01:27:12.294Z,962.55
2017-01-08T01:28:12.957Z,962.57
2017-01-08T01:29:12.761Z,962.51
2017-01-08T01:30:14.387Z,962.51
2017-01-08T01:31:14.673Z,962.52
2017-01-08T01:32:14.874Z,962.44
2017-01-08T01:33:11.553Z,962.41
2017-01-08T01:34:13.936Z,962.41
2017-01-08T01:35:15.937Z,962.35
2017-01-08T01:36:13.446Z,962.36
2017-01-08T01:37:12.439Z,962.33
2017-01-08T01:38:15.966Z,962.33
2017-01-08T01:39:12.904Z,962.36
2017-01-08T01:40:12.080Z,962.30
2017-01-08T01:41:12.230Z,962.35
2017-01-08T01:42:13.835Z,962.34
2017-01-08T01:43:13.360Z,962.39
2017-01-08T01:44:13.983Z,962.39
2017-01-08T01:45:12.274Z,962.30
2017-01-08T01:46:13.016Z,962.35
2017-01-08T01:47:12.867Z,962.38
2017-01-08T01:48:12.448Z,962.33
2017-01-08T01:49:12.630Z,962.34
2017-01-08T01:50:13.967Z,962.33
2017-01-08T01:51:12.142Z,962.30
2017-01-08T01:52:10.463Z,962.25
2017-01-08T01:53:13.251Z,962.27
2017-01-08T01:54:13.953Z,962.26
2017-01-08T01:55:10.936Z,962.23
2017-01-08T01:56:13.166Z,962.28
2017-01-08T01:57:15.023Z,962.27
2017-01-08T01:58:11.013Z,962.28
2017-01-08T01:59:13.106Z,962.20
2017-01-08T02:00:12.936Z,962.26
2017-01-08T02:01:14.324Z,962.23
2017-01-08T02:02:12.968Z,962.25
2017-01-08T02:03:13.914Z,962.24
2017-01-08T02:04:14.736Z,962.24
2017-01-08T02:05:13.063Z,962.24
2017-01-08T02:06:13.416Z,962.26
2017-01-08T02:07:13.133Z,962.23
2017-01-08T02:08:13.755Z,962.25
2017-01-08T02:09:13.856Z,962.22
2017-01-08T02:10:14.199Z,962.25
2017-01-08T02:11:12.975Z,962.24
2017-01-08T02:12:09.265Z,962.21
2017-01-08T02:13:14.548Z,962.22
2017-01-08T02:14:13.274Z,962.24
2017-01-08T02:15:12.750Z,962.21
2017-01-08T02:16:12.829Z,962.26
2017-01-08T02:17:13.132Z,962.18
2017-01-08T02:18:12.827Z,962.23
2017-01-08T02:19:12.652Z,962.21
2017-01-08T02:20:13.328Z,962.19
2017-01-08T02:21:12.928Z,962.17
2017-01-08T02:22:12.018Z,962.15
2017-01-08T02:23:14.129Z,962.20
2017-01-08T02:24:12.818Z,962.19
2017-01-08T02:25:09.509Z,962.16
2017-01-08T02:26:12.486Z,962.15
2017-01-08T02:27:13.419Z,962.19
2017-01-08T02:28:13.159Z,962.24
2017-01-08T02:29:12.386Z,962.25
2017-01-08T02:30:12.991Z,962.21
2017-01-08T02:31:15.008Z,962.23
2017-01-08T02:32:12.653Z,962.21
2017-01-08T02:33:14.244Z,962.16
2017-01-08T02:34:13.298Z,962.21
2017-01-08T02:35:12.339Z,962.25
2017-01-08T02:36:15.123Z,962.19
2017-01-08T02:37:13.175Z,962.18
2017-01-08T02:38:14.579Z,962.18
2017-01-08T02:39:11.586Z,962.21
2017-01-08T02:40:13.918Z,962.24
2017-01-08T02:41:11.945Z,962.23
2017-01-08T02:42:13.439Z,962.22
2017-01-08T02:43:13.198Z,962.26
2017-01-08T02:44:13.137Z,962.21
2017-01-08T02:45:13.421Z,962.23
2017-01-08T02:46:14.068Z,962.23
2017-01-08T02:47:12.712Z,962.21
2017-01-08T02:48:12.767Z,962.23
2017-01-08T02:49:12.715Z,962.23
2017-01-08T02:50:13.156Z,962.17
2017-01-08T02:51:13.052Z,962.20
2017-01-08T02:52:13.549Z,962.22
2017-01-08T02:53:13.517Z,962.22
2017-01-08T02:54:15.035Z,962.23
2017-01-08T02:55:12.188Z,962.25
2017-01-08T02:56:13.631Z,962.31
2017-01-08T02:57:11.445Z,962.31
2017-01-08T02:58:14.589Z,962.35
2017-01-08T02:59:12.987Z,962.31
2017-01-08T03:00:13.357Z,962.34
2017-01-08T03:01:13.358Z,962.36
2017-01-08T03:02:12.016Z,962.38
2017-01-08T03:03:12.952Z,962.39
2017-01-08T03:04:12.093Z,962.32
2017-01-08T03:05:10.797Z,962.33
2017-01-08T03:06:15.378Z,962.30
2017-01-08T03:07:13.036Z,962.32
2017-01-08T03:08:12.010Z,962.34
2017-01-08T03:09:14.195Z,962.29
2017-01-08T03:10:13.809Z,962.32
2017-01-08T03:11:14.094Z,962.30
2017-01-08T03:12:13.803Z,962.31
2017-01-08T03:13:11.916Z,962.30
2017-01-08T03:14:12.455Z,962.27
2017-01-08T03:15:13.391Z,962.24
2017-01-08T03:16:13.702Z,962.22
2017-01-08T03:17:13.743Z,962.20
2017-01-08T03:18:13.384Z,962.17
2017-01-08T03:19:15.538Z,962.15
2017-01-08T03:20:13.599Z,962.17
2017-01-08T03:21:13.191Z,962.14
2017-01-08T03:22:13.141Z,962.21
2017-01-08T03:23:14.284Z,962.16
2017-01-08T03:24:13.234Z,962.17
2017-01-08T03:25:13.192Z,962.19
2017-01-08T03:26:12.901Z,962.18
2017-01-08T03:27:12.127Z,962.17
2017-01-08T03:28:12.286Z,962.13
2017-01-08T03:29:12.969Z,962.10
2017-01-08T03:30:11.981Z,962.09
2017-01-08T03:31:13.633Z,962.05
2017-01-08T03:32:13.092Z,962.09
2017-01-08T03:33:11.824Z,962.14
2017-01-08T03:34:12.760Z,962.13
2017-01-08T03:35:11.839Z,962.10
2017-01-08T03:36:12.467Z,962.07
2017-01-08T03:37:14.117Z,962.11
2017-01-08T03:38:15.155Z,962.08
2017-01-08T03:39:13.023Z,962.09
2017-01-08T03:40:12.183Z,962.05
2017-01-08T03:41:13.994Z,962.06
2017-01-08T03:42:11.932Z,962.07
2017-01-08T03:43:13.292Z,962.06
2017-01-08T03:44:12.730Z,962.03
2017-01-08T03:45:14.405Z,962.05
2017-01-08T03:46:14.539Z,962.02
2017-01-08T03:47:14.564Z,962.04
2017-01-08T03:48:12.675Z,962.06
2017-01-08T03:49:13.201Z,962.03
2017-01-08T03:50:13.915Z,962.00
2017-01-08T03:51:13.096Z,962.03
2017-01-08T03:52:14.398Z,962.02
2017-01-08T03:53:12.990Z,962.01
2017-01-08T03:54:12.698Z,962.04
2017-01-08T03:55:14.129Z,962.00
2017-01-08T03:56:12.729Z,962.01
2017-01-08T03:57:12.751Z,962.01
2017-01-08T03:58:11.950Z,962.05
2017-01-08T03:59:13.769Z,962.03
2017-01-08T04:00:13.809Z,962.09
2017-01-08T04:01:11.886Z,962.07
2017-01-08T04:02:12.065Z,962.03
2017-01-08T04:03:10.907Z,962.06
2017-01-08T04:04:12.721Z,962.05
2017-01-08T04:05:13.336Z,962.03
2017-01-08T04:06:12.970Z,962.04
2017-01-08T04:07:12.225Z,962.05
2017-01-08T04:08:13.186Z,962.05
2017-01-08T04:09:14.364Z,962.02
2017-01-08T04:10:13.301Z,961.99
2017-01-08T04:11:12.306Z,961.97
2017-01-08T04:12:12.373Z,962.02
2017-01-08T04:13:14.213Z,962.01
2017-01-08T04:14:12.250Z,961.98
2017-01-08T04:15:12.278Z,962.01
2017-01-08T04:16:13.596Z,961.97
2017-01-08T04:17:14.095Z,961.92
2017-01-08T04:18:13.136Z,961.92
2017-01-08T04:19:13.378Z,961.94
2017-01-08T04:20:13.052Z,961.93
2017-01-08T04:21:12.258Z,961.97
2017-01-08T04:22:12.954Z,962.00
2017-01-08T04:23:12.043Z,962.03
2017-01-08T04:24:12.770Z,962.02
2017-01-08T04:25:12.513Z,962.06
2017-01-08T04:26:11.361Z,962.12
2017-01-08T04:27:13.934Z,962.20
2017-01-08T04:28:12.910Z,962.24
2017-01-08T04:29:14.185Z,962.36
2017-01-08T04:30:09.891Z,962.33
2017-01-08T04:31:12.839Z,962.40
2017-01-08T04:32:12.684Z,962.38
2017-01-08T04:33:11.032Z,962.36
2017-01-08T04:34:12.342Z,962.27
2017-01-08T04:35:12.976Z,962.28
2017-01-08T04:36:09.217Z,962.30
2017-01-08T04:37:12.841Z,962.32
2017-01-08T04:38:12.009Z,962.32
2017-01-08T04:39:12.137Z,962.29
2017-01-08T04:40:15.003Z,962.31
2017-01-08T04:41:12.800Z,962.31
2017-01-08T04:42:12.677Z,962.32
2017-01-08T04:43:15.607Z,962.28
2017-01-08T04:44:13.305Z,962.26
2017-01-08T04:45:16.947Z,962.23
2017-01-08T04:46:13.606Z,962.28
2017-01-08T04:47:14.731Z,962.20
2017-01-08T04:48:13.170Z,962.24
2017-01-08T04:49:13.119Z,962.25
2017-01-08T04:50:12.904Z,962.22
2017-01-08T04:51:12.952Z,962.22
2017-01-08T04:52:12.555Z,962.23
2017-01-08T04:53:13.399Z,962.19
2017-01-08T04:54:13.906Z,962.22
2017-01-08T04:55:12.500Z,962.23
2017-01-08T04:56:12.604Z,962.29
2017-01-08T04:57:13.337Z,962.26
2017-01-08T04:58:12.879Z,962.29
2017-01-08T04:59:11.880Z,962.26
2017-01-08T05:00:11.964Z,962.23
2017-01-08T05:01:12.962Z,962.25
2017-01-08T05:02:12.147Z,962.30
2017-01-08T05:03:13.870Z,962.30
2017-01-08T05:04:10.970Z,962.33
2017-01-08T05:05:12.036Z,962.37
2017-01-08T05:06:14.585Z,962.41
2017-01-08T05:07:11.243Z,962.40
2017-01-08T05:08:14.460Z,962.44
2017-01-08T05:09:13.218Z,962.40
2017-01-08T05:10:14.828Z,962.41
2017-01-08T05:11:12.526Z,962.39
2017-01-08T05:12:13.719Z,962.37
2017-01-08T05:13:12.594Z,962.45
2017-01-08T05:14:12.616Z,962.45
2017-01-08T05:15:13.637Z,962.44
2017-01-08T05:16:13.732Z,962.45
2017-01-08T05:17:13.706Z,962.51
2017-01-08T05:18:14.689Z,962.48
2017-01-08T05:19:10.828Z,962.52
2017-01-08T05:20:12.977Z,962.51
2017-01-08T05:21:12.545Z,962.52
2017-01-08T05:22:13.456Z,962.52
2017-01-08T05:23:12.571Z,962.54
2017-01-08T05:24:12.552Z,962.54
2017-01-08T05:25:17.500Z,962.50
2017-01-08T05:26:12.644Z,962.52
2017-01-08T05:27:13.871Z,962.53
2017-01-08T05:28:11.807Z,962.54
2017-01-08T05:29:14.179Z,962.55
2017-01-08T05:30:10.372Z,962.52
2017-01-08T05:31:13.089Z,962.49
2017-01-08T05:32:11.387Z,962.53
2017-01-08T05:33:11.581Z,962.55
2017-01-08T05:34:12.744Z,962.53
2017-01-08T05:35:12.339Z,962.54
2017-01-08T05:36:13.758Z,962.56
2017-01-08T05:37:11.975Z,962.61
2017-01-08T05:38:13.545Z,962.61
2017-01-08T05:39:13.267Z,962.69
2017-01-08T05:40:14.667Z,962.69
2017-01-08T05:41:12.695Z,962.69
2017-01-08T05:42:12.647Z,962.70
2017-01-08T05:43:11.340Z,962.70
2017-01-08T05:44:13.241Z,962.61
2017-01-08T05:45:12.272Z,962.63
2017-01-08T05:46:11.770Z,962.61
2017-01-08T05:47:14.399Z,962.56
2017-01-08T05:48:12.438Z,962.59
2017-01-08T05:49:13.517Z,962.59
2017-01-08T05:50:13.253Z,962.57
2017-01-08T05:51:18.390Z,962.60
2017-01-08T05:52:14.175Z,962.61
2017-01-08T05:53:10.677Z,962.61
2017-01-08T05:54:12.962Z,962.65
2017-01-08T05:55:13.241Z,962.64
2017-01-08T05:56:12.220Z,962.68
2017-01-08T05:57:13.934Z,962.67
2017-01-08T05:58:12.574Z,962.70
2017-01-08T05:59:12.632Z,962.77
2017-01-08T06:00:13.489Z,962.81
2017-01-08T06:01:13.112Z,962.81
2017-01-08T06:02:14.815Z,962.84
2017-01-08T06:03:12.328Z,962.88
2017-01-08T06:04:12.345Z,962.81
2017-01-08T06:05:14.479Z,962.84
2017-01-08T06:06:12.637Z,962.82
2017-01-08T06:07:11.695Z,962.88
2017-01-08T06:08:14.918Z,962.90
2017-01-08T06:09:12.978Z,962.89
2017-01-08T06:10:13.214Z,962.89
2017-01-08T06:11:13.787Z,962.90
2017-01-08T06:12:12.489Z,962.94
2017-01-08T06:13:09.677Z,962.93
2017-01-08T06:14:12.968Z,962.98
2017-01-08T06:15:11.218Z,962.97
2017-01-08T06:16:12.723Z,962.94
2017-01-08T06:17:13.511Z,962.97
2017-01-08T06:18:13.561Z,962.99
2017-01-08T06:19:12.730Z,962.96
2017-01-08T06:20:15.390Z,962.99
2017-01-08T06:21:10.579Z,962.99
2017-01-08T06:22:12.847Z,963.00
2017-01-08T06:23:12.559Z,963.01
2017-01-08T06:24:12.765Z,963.03
2017-01-08T06:25:10.010Z,963.01
2017-01-08T06:26:15.742Z,962.98
2017-01-08T06:27:12.126Z,963.00
2017-01-08T06:28:12.600Z,962.98
2017-01-08T06:29:12.635Z,962.97
2017-01-08T06:30:13.523Z,962.97
2017-01-08T06:31:13.272Z,962.99
2017-01-08T06:32:14.088Z,962.96
2017-01-08T06:33:12.152Z,962.96
2017-01-08T06:34:12.959Z,962.96
2017-01-08T06:35:13.767Z,962.96
2017-01-08T06:36:11.905Z,962.95
2017-01-08T06:37:13.126Z,962.98
2017-01-08T06:38:13.179Z,963.03
2017-01-08T06:39:12.935Z,962.97
2017-01-08T06:40:10.887Z,963.04
2017-01-08T06:41:12.620Z,962.99
2017-01-08T06:42:13.225Z,963.01
2017-01-08T06:43:12.922Z,963.02
2017-01-08T06:44:14.446Z,963.02
2017-01-08T06:45:12.376Z,963.07
2017-01-08T06:46:13.661Z,963.09
2017-01-08T06:47:13.176Z,963.10
2017-01-08T06:48:13.280Z,963.13
2017-01-08T06:49:13.162Z,963.12
2017-01-08T06:50:13.650Z,963.18
2017-01-08T06:51:14.253Z,963.18
2017-01-08T06:52:13.293Z,963.13
2017-01-08T06:53:13.002Z,963.12
2017-01-08T06:54:13.174Z,963.16
2017-01-08T06:55:10.567Z,963.20
2017-01-08T06:56:14.344Z,963.21
2017-01-08T06:57:09.844Z,963.27
2017-01-08T06:58:12.670Z,963.25
2017-01-08T06:59:12.804Z,963.28
2017-01-08T07:00:11.826Z,963.32
2017-01-08T07:01:09.616Z,963.31
2017-01-08T07:02:12.933Z,963.30
2017-01-08T07:03:12.871Z,963.32
2017-01-08T07:04:12.004Z,963.35
2017-01-08T07:05:12.762Z,963.35
2017-01-08T07:06:12.482Z,963.35
2017-01-08T07:07:13.054Z,963.35
2017-01-08T07:08:12.032Z,963.31
2017-01-08T07:09:12.235Z,963.34
2017-01-08T07:10:12.375Z,963.34
2017-01-08T07:11:13.097Z,963.34
2017-01-08T07:12:12.939Z,963.33
2017-01-08T07:13:11.335Z,963.31
2017-01-08T07:14:10.839Z,963.35
2017-01-08T07:15:12.171Z,963.43
2017-01-08T07:16:12.705Z,963.39
2017-01-08T07:17:10.351Z,963.50
2017-01-08T07:18:12.232Z,963.49
2017-01-08T07:19:12.977Z,963.53
2017-01-08T07:20:12.683Z,963.52
2017-01-08T07:21:13.995Z,963.54
2017-01-08T07:22:11.959Z,963.54
2017-01-08T07:23:12.489Z,963.46
2017-01-08T07:24:12.575Z,963.47
2017-01-08T07:25:12.638Z,963.47
2017-01-08T07:26:14.121Z,963.51
2017-01-08T07:27:12.976Z,963.55
2017-01-08T07:28:12.488Z,963.61
2017-01-08T07:29:11.460Z,963.56
2017-01-08T07:30:13.842Z,963.56
2017-01-08T07:31:12.004Z,963.56
2017-01-08T07:32:12.713Z,963.59
2017-01-08T07:33:11.523Z,963.58
2017-01-08T07:34:11.910Z,963.58
2017-01-08T07:35:12.604Z,963.62
2017-01-08T07:36:13.195Z,963.66
2017-01-08T07:37:13.442Z,963.69
2017-01-08T07:38:13.278Z,963.70
2017-01-08T07:39:12.804Z,963.73
2017-01-08T07:40:12.217Z,963.72
2017-01-08T07:41:12.367Z,963.70
2017-01-08T07:42:13.584Z,963.75
2017-01-08T07:43:14.923Z,963.75
2017-01-08T07:44:13.500Z,963.74
2017-01-08T07:45:13.082Z,963.78
2017-01-08T07:46:13.836Z,963.79
2017-01-08T07:47:12.105Z,963.80
2017-01-08T07:48:12.196Z,963.86
2017-01-08T07:49:14.505Z,963.91
2017-01-08T07:50:13.215Z,963.92
2017-01-08T07:51:12.743Z,963.93
2017-01-08T07:52:13.304Z,963.94
2017-01-08T07:53:14.395Z,963.87
2017-01-08T07:54:13.432Z,963.86
2017-01-08T07:55:13.000Z,963.89
2017-01-08T07:56:12.707Z,963.88
2017-01-08T07:57:12.798Z,963.90
2017-01-08T07:58:12.467Z,963.95
2017-01-08T07:59:13.069Z,963.92
2017-01-08T08:00:12.723Z,963.95
2017-01-08T08:01:13.077Z,963.92
2017-01-08T08:02:12.233Z,963.95
2017-01-08T08:03:12.356Z,963.99
2017-01-08T08:04:12.991Z,963.98
2017-01-08T08:05:12.030Z,964.04
2017-01-08T08:06:12.212Z,964.08
2017-01-08T08:07:12.751Z,964.05
2017-01-08T08:08:13.505Z,964.09
2017-01-08T08:09:13.262Z,964.12
2017-01-08T08:10:13.845Z,964.13
2017-01-08T08:11:13.720Z,964.14
2017-01-08T08:12:15.481Z,964.14
2017-01-08T08:13:14.108Z,964.09
2017-01-08T08:14:13.020Z,964.12
2017-01-08T08:15:11.245Z,964.16
2017-01-08T08:16:12.834Z,964.15
2017-01-08T08:17:12.929Z,964.19
2017-01-08T08:18:12.483Z,964.22
2017-01-08T08:19:13.166Z,964.24
2017-01-08T08:20:12.962Z,964.22
2017-01-08T08:21:12.023Z,964.19
2017-01-08T08:22:12.690Z,964.23
2017-01-08T08:23:13.129Z,964.12
2017-01-08T08:24:12.640Z,964.18
2017-01-08T08:25:12.663Z,964.21
2017-01-08T08:26:13.635Z,964.25
2017-01-08T08:27:14.460Z,964.20
2017-01-08T08:28:13.220Z,964.30
2017-01-08T08:29:14.208Z,964.34
2017-01-08T08:30:12.365Z,964.34
2017-01-08T08:31:12.522Z,964.33
2017-01-08T08:32:14.011Z,964.37
2017-01-08T08:33:13.710Z,964.35
2017-01-08T08:34:12.862Z,964.38
2017-01-08T08:35:12.059Z,964.39
2017-01-08T08:36:12.834Z,964.36
2017-01-08T08:37:12.678Z,964.33
2017-01-08T08:38:13.737Z,964.36
2017-01-08T08:39:12.787Z,964.41
2017-01-08T08:40:13.403Z,964.42
2017-01-08T08:41:11.391Z,964.44
2017-01-08T08:42:14.323Z,964.52
2017-01-08T08:43:11.064Z,964.52
2017-01-08T08:44:12.213Z,964.54
2017-01-08T08:45:13.108Z,964.55
2017-01-08T08:46:12.279Z,964.56
2017-01-08T08:47:12.941Z,964.53
2017-01-08T08:48:10.741Z,964.55
2017-01-08T08:49:11.931Z,964.54
2017-01-08T08:50:12.539Z,964.51
2017-01-08T08:51:12.657Z,964.48
2017-01-08T08:52:13.363Z,964.48
2017-01-08T08:53:13.040Z,964.56
2017-01-08T08:54:10.341Z,964.58
2017-01-08T08:55:14.250Z,964.57
2017-01-08T08:56:12.768Z,964.58
2017-01-08T08:57:12.294Z,964.59
2017-01-08T08:58:13.071Z,964.57
2017-01-08T08:59:15.016Z,964.59
2017-01-08T09:00:12.057Z,964.62
2017-01-08T09:01:12.113Z,964.63
2017-01-08T09:02:13.853Z,964.63
2017-01-08T09:03:13.630Z,964.65
2017-01-08T09:04:14.517Z,964.58
2017-01-08T09:05:14.248Z,964.62
2017-01-08T09:06:12.972Z,964.59
2017-01-08T09:07:12.532Z,964.60
2017-01-08T09:08:13.125Z,964.56
2017-01-08T09:09:12.302Z,964.54
2017-01-08T09:10:14.043Z,964.60
2017-01-08T09:11:13.736Z,964.60
2017-01-08T09:12:12.874Z,964.63
2017-01-08T09:13:11.752Z,964.63
2017-01-08T09:14:13.022Z,964.67
2017-01-08T09:15:12.678Z,964.66
2017-01-08T09:16:14.388Z,964.65
2017-01-08T09:17:13.135Z,964.60
2017-01-08T09:18:10.905Z,964.58
2017-01-08T09:19:12.421Z,964.59
2017-01-08T09:20:13.384Z,964.58
2017-01-08T09:21:13.441Z,964.63
2017-01-08T09:22:14.212Z,964.63
2017-01-08T09:23:13.467Z,964.61
2017-01-08T09:24:15.303Z,964.66
2017-01-08T09:25:12.997Z,964.58
2017-01-08T09:26:17.269Z,964.56
2017-01-08T09:27:13.151Z,964.59
2017-01-08T09:28:12.937Z,964.52
2017-01-08T09:29:12.288Z,964.57
2017-01-08T09:30:12.863Z,964.57
2017-01-08T09:31:12.015Z,964.53
2017-01-08T09:32:12.150Z,964.58
2017-01-08T09:33:12.123Z,964.52
2017-01-08T09:34:13.160Z,964.55
2017-01-08T09:35:12.812Z,964.54
2017-01-08T09:36:12.689Z,964.56
2017-01-08T09:37:15.257Z,964.56
2017-01-08T09:38:12.882Z,964.58
2017-01-08T09:39:11.884Z,964.57
2017-01-08T09:40:11.907Z,964.40
2017-01-08T09:41:10.891Z,964.52
2017-01-08T09:42:12.084Z,964.52
2017-01-08T09:43:12.844Z,964.54
2017-01-08T09:44:11.968Z,964.53
2017-01-08T09:45:12.051Z,964.50
2017-01-08T09:46:12.653Z,964.48
2017-01-08T09:47:12.767Z,964.47
2017-01-08T09:48:13.775Z,964.50
2017-01-08T09:49:13.555Z,964.48
2017-01-08T09:50:13.175Z,964.48
2017-01-08T09:51:12.699Z,964.51
2017-01-08T09:52:13.109Z,964.50
2017-01-08T09:53:12.874Z,964.48
2017-01-08T09:54:12.432Z,964.51
2017-01-08T09:55:12.442Z,964.47
2017-01-08T09:56:12.552Z,964.44
2017-01-08T09:57:13.254Z,964.42
2017-01-08T09:58:12.452Z,964.42
2017-01-08T09:59:13.265Z,964.39
2017-01-08T10:00:12.733Z,964.34
2017-01-08T10:01:11.173Z,964.38
2017-01-08T10:02:13.948Z,964.34
2017-01-08T10:03:12.604Z,964.33
2017-01-08T10:04:14.503Z,964.29
2017-01-08T10:05:14.107Z,964.27
2017-01-08T10:06:12.056Z,964.29
2017-01-08T10:07:13.710Z,964.26
2017-01-08T10:08:13.173Z,964.27
2017-01-08T10:09:12.304Z,964.31
2017-01-08T10:10:13.314Z,964.28
2017-01-08T10:11:12.396Z,964.32
2017-01-08T10:12:12.987Z,964.33
2017-01-08T10:13:13.453Z,964.37
2017-01-08T10:14:13.711Z,964.40
2017-01-08T10:15:14.609Z,964.37
2017-01-08T10:16:14.381Z,964.38
2017-01-08T10:17:12.710Z,964.38
2017-01-08T10:18:10.453Z,964.42
2017-01-08T10:19:11.211Z,964.44
2017-01-08T10:20:14.045Z,964.43
2017-01-08T10:21:12.842Z,964.36
2017-01-08T10:22:12.791Z,964.37
2017-01-08T10:23:09.184Z,964.32
2017-01-08T10:24:13.887Z,964.28
2017-01-08T10:25:13.976Z,964.29
2017-01-08T10:26:12.611Z,964.28
2017-01-08T10:27:13.209Z,964.33
2017-01-08T10:28:11.257Z,964.31
2017-01-08T10:29:12.828Z,964.31
2017-01-08T10:30:16.586Z,964.28
2017-01-08T10:31:13.413Z,964.28
2017-01-08T10:32:14.217Z,964.28
2017-01-08T10:33:13.242Z,964.27
2017-01-08T10:34:12.272Z,964.25
2017-01-08T10:35:09.569Z,964.24
2017-01-08T10:36:12.622Z,964.27
2017-01-08T10:37:13.071Z,964.25
2017-01-08T10:38:13.530Z,964.28
2017-01-08T10:39:12.561Z,964.24
2017-01-08T10:40:12.579Z,964.22
2017-01-08T10:41:11.378Z,964.23
2017-01-08T10:42:13.306Z,964.26
2017-01-08T10:43:12.376Z,964.25
2017-01-08T10:44:14.084Z,964.26
2017-01-08T10:45:12.550Z,964.31
2017-01-08T10:46:13.013Z,964.35
2017-01-08T10:47:12.256Z,964.36
2017-01-08T10:48:11.271Z,964.40
2017-01-08T10:49:11.891Z,964.46
2017-01-08T10:50:13.606Z,964.46
2017-01-08T10:51:14.123Z,964.47
2017-01-08T10:52:12.839Z,964.47
2017-01-08T10:53:13.603Z,964.48
2017-01-08T10:54:10.719Z,964.57
2017-01-08T10:55:10.168Z,964.54
2017-01-08T10:56:12.893Z,964.56
2017-01-08T10:57:12.744Z,964.57
2017-01-08T10:58:12.818Z,964.55
2017-01-08T10:59:13.455Z,964.59
2017-01-08T11:00:12.492Z,964.54
2017-01-08T11:01:15.172Z,964.52
2017-01-08T11:02:12.294Z,964.54
2017-01-08T11:03:14.064Z,964.55
2017-01-08T11:04:10.661Z,964.54
2017-01-08T11:05:13.709Z,964.58
2017-01-08T11:06:11.793Z,964.57
2017-01-08T11:07:11.596Z,964.49
2017-01-08T11:08:15.157Z,964.48
2017-01-08T11:09:13.028Z,964.48
2017-01-08T11:10:13.271Z,964.47
2017-01-08T11:11:12.025Z,964.42
2017-01-08T11:12:11.224Z,964.40
2017-01-08T11:13:12.861Z,964.41
2017-01-08T11:14:12.538Z,964.43
2017-01-08T11:15:14.282Z,964.45
2017-01-08T11:16:11.148Z,964.49
2017-01-08T11:17:13.027Z,964.52
2017-01-08T11:18:12.625Z,964.55
2017-01-08T11:19:12.733Z,964.52
2017-01-08T11:20:12.560Z,964.49
2017-01-08T11:21:13.220Z,964.48
2017-01-08T11:22:13.350Z,964.48
2017-01-08T11:23:12.902Z,964.49
2017-01-08T11:24:11.660Z,964.53
2017-01-08T11:25:10.153Z,964.53
2017-01-08T11:26:13.665Z,964.53
2017-01-08T11:27:13.099Z,964.51
2017-01-08T11:28:12.841Z,964.46
2017-01-08T11:29:13.564Z,964.48
2017-01-08T11:30:13.393Z,964.44
2017-01-08T11:31:11.825Z,964.43
2017-01-08T11:32:15.331Z,964.51
2017-01-08T11:33:12.615Z,964.47
2017-01-08T11:34:11.024Z,964.49
2017-01-08T11:35:14.761Z,964.48
2017-01-08T11:36:12.808Z,964.46
2017-01-08T11:37:10.072Z,964.49
2017-01-08T11:38:12.064Z,964.40
2017-01-08T11:39:10.350Z,964.43
2017-01-08T11:40:14.183Z,964.43
2017-01-08T11:41:12.955Z,964.40
2017-01-08T11:42:13.049Z,964.42
2017-01-08T11:43:14.565Z,964.40
2017-01-08T11:44:12.718Z,964.46
2017-01-08T11:45:13.346Z,964.46
2017-01-08T11:46:12.576Z,964.41
2017-01-08T11:47:12.616Z,964.43
2017-01-08T11:48:13.419Z,964.38
2017-01-08T11:49:12.492Z,964.36
2017-01-08T11:50:10.520Z,964.33
2017-01-08T11:51:13.416Z,964.44
2017-01-08T11:52:12.563Z,964.35
2017-01-08T11:53:13.453Z,964.39
2017-01-08T11:54:12.610Z,964.37
2017-01-08T11:55:12.618Z,964.37
2017-01-08T11:56:12.910Z,964.36
2017-01-08T11:57:11.984Z,964.41
2017-01-08T11:58:12.633Z,964.38
2017-01-08T11:59:13.054Z,964.33
2017-01-08T12:00:10.763Z,964.33
2017-01-08T12:01:13.804Z,964.31
2017-01-08T12:02:12.475Z,964.30
2017-01-08T12:03:13.312Z,964.26
2017-01-08T12:04:11.273Z,964.34
2017-01-08T12:05:12.483Z,964.35
2017-01-08T12:06:13.131Z,964.38
2017-01-08T12:07:14.570Z,964.35
2017-01-08T12:08:12.786Z,964.29
2017-01-08T12:09:12.164Z,964.30
2017-01-08T12:10:12.067Z,964.25
2017-01-08T12:11:14.716Z,964.23
2017-01-08T12:12:12.622Z,964.26
2017-01-08T12:13:13.230Z,964.25
2017-01-08T12:14:13.895Z,964.28
2017-01-08T12:15:12.746Z,964.29
2017-01-08T12:16:13.625Z,964.26
2017-01-08T12:17:13.383Z,964.25
2017-01-08T12:18:13.487Z,964.29
2017-01-08T12:19:14.704Z,964.23
2017-01-08T12:22:14.103Z,964.26
2017-01-08T12:23:12.256Z,964.20
2017-01-08T12:24:15.146Z,964.20
2017-01-08T12:25:13.836Z,964.19
2017-01-08T12:26:14.443Z,964.19
2017-01-08T12:27:13.386Z,964.21
2017-01-08T12:28:13.388Z,964.20
2017-01-08T12:29:14.173Z,964.19
2017-01-08T12:30:13.628Z,964.16